createdAt,value
2019-04-21T00:01:00.390Z,31.70
2019-04-21T00:03:40.789Z,32.00
2019-04-21T00:06:29.850Z,32.10
2019-04-21T00:09:12.967Z,32.20
2019-04-21T00:11:40.859Z,32.40
2019-04-21T00:14:14.147Z,32.40
2019-04-21T00:16:45.430Z,32.40
2019-04-21T00:19:40.966Z,32.40
2019-04-21T00:22:31.030Z,32.70
2019-04-21T00:25:08.953Z,32.80
2019-04-21T00:27:46.401Z,32.90
2019-04-21T00:30:34.078Z,32.90
2019-04-21T00:32:58.816Z,33.40
2019-04-21T00:35:29.414Z,33.20
2019-04-21T00:38:25.071Z,33.20
2019-04-21T00:41:05.471Z,33.30
2019-04-21T00:43:35.094Z,33.30
2019-04-21T00:46:03.433Z,33.20
2019-04-21T00:48:53.552Z,33.40
2019-04-21T00:51:40.680Z,33.70
2019-04-21T00:54:12.923Z,33.60
2019-04-21T00:56:48.261Z,33.80
2019-04-21T00:59:28.186Z,34.00
2019-04-21T01:01:55.589Z,33.80
2019-04-21T01:04:39.632Z,33.90
2019-04-21T01:07:18.037Z,33.90
2019-04-21T01:09:45.301Z,34.20
2019-04-21T01:12:32.157Z,34.30
2019-04-21T01:15:12.336Z,34.30
2019-04-21T01:17:40.821Z,34.40
2019-04-21T01:20:11.886Z,34.60
2019-04-21T01:22:33.363Z,34.70
2019-04-21T01:25:19.014Z,34.50
2019-04-21T01:28:01.255Z,34.60
2019-04-21T01:30:40.996Z,34.50
2019-04-21T01:33:21.671Z,34.70
2019-04-21T01:35:53.632Z,34.70
2019-04-21T01:41:17.369Z,35.00
2019-04-21T01:43:45.875Z,35.10
2019-04-21T01:46:19.427Z,35.20
2019-04-21T01:48:56.988Z,35.20
2019-04-21T01:51:39.790Z,35.30
2019-04-21T01:54:35.524Z,35.40
2019-04-21T01:57:17.299Z,35.40
2019-04-21T01:59:51.212Z,35.50
2019-04-21T02:02:36.445Z,35.80
2019-04-21T02:05:17.428Z,35.70
2019-04-21T02:07:50.910Z,35.90
2019-04-21T02:10:34.675Z,35.90
2019-04-21T02:13:03.538Z,35.90
2019-04-21T02:15:42.238Z,35.90
2019-04-21T02:18:17.008Z,36.00
2019-04-21T02:20:41.232Z,36.00
2019-04-21T02:26:10.102Z,36.20
2019-04-21T02:28:50.230Z,36.30
2019-04-21T02:31:40.606Z,36.30
2019-04-21T02:34:06.604Z,36.30
2019-04-21T02:39:21.019Z,36.50
2019-04-21T02:42:05.311Z,36.60
2019-04-21T02:47:16.727Z,36.70
2019-04-21T02:52:31.337Z,36.80
2019-04-21T02:55:04.070Z,36.70
2019-04-21T02:57:41.343Z,36.80
2019-04-21T03:00:29.066Z,36.70
2019-04-21T03:03:31.065Z,36.90
2019-04-21T03:06:24.849Z,37.00
2019-04-21T03:08:59.008Z,36.90
2019-04-21T03:11:31.308Z,37.10
2019-04-21T03:14:16.468Z,37.10
2019-04-21T03:16:43.044Z,37.20
2019-04-21T03:19:37.963Z,37.20
2019-04-21T03:22:14.470Z,37.30
2019-04-21T03:25:00.878Z,37.30
2019-04-21T03:35:53.467Z,37.70
2019-04-21T03:37:42.511Z,37.50
2019-04-21T03:40:21.726Z,37.80
2019-04-21T03:42:57.491Z,37.90
2019-04-21T03:45:40.492Z,37.90
2019-04-21T03:50:50.888Z,38.00
2019-04-21T03:53:33.941Z,38.10
2019-04-21T03:58:55.884Z,38.10
2019-04-21T04:01:23.947Z,38.30
2019-04-21T04:04:20.202Z,38.40
2019-04-21T04:07:04.019Z,38.50
2019-04-21T04:09:59.045Z,38.50
2019-04-21T04:12:26.244Z,38.30
2019-04-21T04:15:03.059Z,38.40
2019-04-21T04:17:40.723Z,38.60
2019-04-21T04:20:22.243Z,38.60
2019-04-21T04:22:56.449Z,38.70
2019-04-21T04:25:28.075Z,38.90
2019-04-21T04:30:47.582Z,39.20
2019-04-21T04:33:27.891Z,39.30
2019-04-21T04:36:10.972Z,39.20
2019-04-21T04:38:41.451Z,39.10
2019-04-21T04:44:17.600Z,39.10
2019-04-21T04:46:33.366Z,39.30
2019-04-21T04:49:10.747Z,39.20
2019-04-21T04:52:04.778Z,39.80
2019-04-21T04:54:33.775Z,39.50
2019-04-21T04:57:07.738Z,39.70
2019-04-21T05:02:26.540Z,39.60
2019-04-21T05:04:59.311Z,39.80
2019-04-21T05:07:36.194Z,40.00
2019-04-21T05:09:59.664Z,40.10
2019-04-21T05:12:38.528Z,40.20
2019-04-21T05:15:11.517Z,40.20
2019-04-21T05:17:50.910Z,40.40
2019-04-21T05:20:26.173Z,40.50
2019-04-21T05:23:02.978Z,40.60
2019-04-21T05:25:33.758Z,40.50
2019-04-21T05:28:05.432Z,40.30
2019-04-21T05:31:16.370Z,40.40
2019-04-21T05:33:57.774Z,40.40
2019-04-21T05:36:56.713Z,40.20
2019-04-21T05:39:43.504Z,40.30
2019-04-21T05:42:10.485Z,40.40
2019-04-21T05:48:12.197Z,40.50
2019-04-21T05:50:33.686Z,40.50
2019-04-21T05:53:24.122Z,40.40
2019-04-21T05:55:56.985Z,40.50
2019-04-21T05:58:33.382Z,40.40
2019-04-21T06:04:03.600Z,40.50
2019-04-21T06:06:39.507Z,40.60
2019-04-21T06:08:59.487Z,40.90
2019-04-21T06:11:36.254Z,41.30
2019-04-21T06:14:21.730Z,41.30
2019-04-21T06:16:55.652Z,41.20
2019-04-21T06:19:41.346Z,41.30
2019-04-21T06:22:11.999Z,41.20
2019-04-21T06:25:16.255Z,41.10
2019-04-21T06:27:28.068Z,41.10
2019-04-21T06:30:00.042Z,40.90
2019-04-21T06:32:46.654Z,40.80
2019-04-21T06:35:52.983Z,40.50
2019-04-21T06:38:19.631Z,40.40
2019-04-21T06:40:48.388Z,40.30
2019-04-21T06:46:10.983Z,40.90
2019-04-21T06:48:48.276Z,40.00
2019-04-21T06:51:22.537Z,40.40
2019-04-21T06:54:01.716Z,39.70
2019-04-21T06:56:37.991Z,39.50
2019-04-21T06:59:06.089Z,39.30
2019-04-21T07:02:18.355Z,39.30
2019-04-21T07:04:25.186Z,39.10
2019-04-21T07:07:02.177Z,38.90
2019-04-21T07:09:53.088Z,38.60
2019-04-21T07:12:18.671Z,38.60
2019-04-21T07:14:59.029Z,38.50
2019-04-21T07:17:45.404Z,38.70
2019-04-21T07:20:12.485Z,38.20
2019-04-21T07:22:50.828Z,38.10
2019-04-21T07:25:28.322Z,37.90
2019-04-21T07:28:03.086Z,37.70
2019-04-21T07:30:37.169Z,37.50
2019-04-21T07:33:37.557Z,37.20
2019-04-21T07:35:50.956Z,37.20
2019-04-21T07:38:29.830Z,36.80
2019-04-21T07:40:58.739Z,36.40
2019-04-21T07:43:33.987Z,36.30
2019-04-21T07:46:10.155Z,36.20
2019-04-21T07:48:56.363Z,36.20
2019-04-21T07:52:06.001Z,36.10
2019-04-21T07:54:54.065Z,35.90
2019-04-21T07:57:17.040Z,35.50
2019-04-21T08:02:29.389Z,35.30
2019-04-21T08:07:54.741Z,35.20
2019-04-21T08:10:16.103Z,34.80
2019-04-21T08:12:54.214Z,34.70
2019-04-21T08:15:52.557Z,34.70
2019-04-21T08:18:14.143Z,34.60
2019-04-21T08:20:48.003Z,33.80
2019-04-21T08:23:25.587Z,33.40
2019-04-21T08:26:04.771Z,32.40
2019-04-21T08:28:39.198Z,31.50
2019-04-21T08:31:15.386Z,31.10
2019-04-21T08:33:55.397Z,30.90
2019-04-21T08:36:40.677Z,30.70
2019-04-21T08:39:08.748Z,30.50
2019-04-21T08:41:46.438Z,30.00
2019-04-21T08:44:25.649Z,29.70
2019-04-21T08:47:00.980Z,29.50
2019-04-21T08:49:39.261Z,29.40
2019-04-21T08:52:09.938Z,29.30
2019-04-21T08:54:49.629Z,28.50
2019-04-21T08:57:50.740Z,28.40
2019-04-21T09:03:06.774Z,28.20
2019-04-21T09:05:45.568Z,28.50
2019-04-21T09:08:20.138Z,28.00
2019-04-21T09:10:54.699Z,27.90
2019-04-21T09:13:32.155Z,27.70
2019-04-21T09:16:09.086Z,27.30
2019-04-21T09:18:41.914Z,27.20
2019-04-21T09:21:31.486Z,27.40
2019-04-21T09:24:04.573Z,27.20
2019-04-21T09:26:41.345Z,27.20
2019-04-21T09:29:10.924Z,27.30
2019-04-21T09:31:41.097Z,26.80
2019-04-21T09:34:20.769Z,26.80
2019-04-21T09:36:58.737Z,26.40
2019-04-21T09:39:31.273Z,26.30
2019-04-21T09:42:06.596Z,26.20
2019-04-21T09:44:44.372Z,26.20
2019-04-21T09:47:22.885Z,26.10
2019-04-21T09:49:56.288Z,25.90
2019-04-21T09:52:39.657Z,25.90
2019-04-21T09:55:14.288Z,26.00
2019-04-21T09:57:52.188Z,25.90
2019-04-21T10:00:25.381Z,25.90
2019-04-21T10:03:06.047Z,25.70
2019-04-21T10:05:36.658Z,25.50
2019-04-21T10:08:12.513Z,25.30
2019-04-21T10:10:49.076Z,25.30
2019-04-21T10:13:25.386Z,24.80
2019-04-21T10:16:19.643Z,24.50
2019-04-21T10:18:54.953Z,24.30
2019-04-21T10:21:31.592Z,23.70
2019-04-21T10:24:10.381Z,23.60
2019-04-21T10:26:45.711Z,23.40
2019-04-21T10:29:25.929Z,23.20
2019-04-21T10:31:59.623Z,22.80
2019-04-21T10:34:34.903Z,22.50
2019-04-21T10:37:11.232Z,22.30
2019-04-21T10:39:47.526Z,22.50
2019-04-21T10:42:23.682Z,22.60
2019-04-21T10:44:59.058Z,22.50
2019-04-21T10:47:34.612Z,22.60
2019-04-21T10:50:10.931Z,23.00
2019-04-21T10:53:18.691Z,22.90
2019-04-21T10:56:06.454Z,23.10
2019-04-21T10:58:36.325Z,23.00
2019-04-21T11:01:14.257Z,22.80
2019-04-21T11:04:29.655Z,22.80
2019-04-21T11:07:10.767Z,22.50
2019-04-21T11:09:42.322Z,22.50
2019-04-21T11:12:19.813Z,22.80
2019-04-21T11:14:55.124Z,22.70
2019-04-21T11:17:30.356Z,22.50
2019-04-21T11:20:06.696Z,22.30
2019-04-21T11:22:42.007Z,22.00
2019-04-21T11:25:17.831Z,22.10
2019-04-21T11:27:56.163Z,22.20
2019-04-21T11:30:31.737Z,22.10
2019-04-21T11:33:08.974Z,22.10
2019-04-21T11:35:45.498Z,21.90
2019-04-21T11:38:30.086Z,21.20
2019-04-21T11:41:03.947Z,22.00
2019-04-21T11:43:39.211Z,22.10
2019-04-21T11:46:14.609Z,22.20
2019-04-21T11:48:50.406Z,22.00
2019-04-21T11:51:26.980Z,21.80
2019-04-21T11:54:02.281Z,21.60
2019-04-21T11:56:38.823Z,21.60
2019-04-21T11:59:15.408Z,22.10
2019-04-21T12:01:51.797Z,21.50
2019-04-21T12:04:27.534Z,21.40
2019-04-21T12:07:02.944Z,21.50
2019-04-21T12:09:39.502Z,21.60
2019-04-21T12:12:14.980Z,21.30
2019-04-21T12:14:50.349Z,21.30
2019-04-21T12:17:25.964Z,21.30
2019-04-21T12:20:01.269Z,21.30
2019-04-21T12:22:37.416Z,21.10
2019-04-21T12:25:15.534Z,20.90
2019-04-21T12:27:52.064Z,20.60
2019-04-21T12:30:27.435Z,21.10
2019-04-21T12:33:27.998Z,20.50
2019-04-21T12:36:03.966Z,20.30
2019-04-21T12:38:46.915Z,20.40
2019-04-21T12:41:16.227Z,20.40
2019-04-21T12:43:52.706Z,20.30
2019-04-21T12:46:28.140Z,20.20
2019-04-21T12:49:04.122Z,20.10
2019-04-21T12:51:39.801Z,19.70
2019-04-21T12:54:15.429Z,19.90
2019-04-21T12:56:51.676Z,19.90
2019-04-21T12:59:29.229Z,19.90
2019-04-21T13:02:03.958Z,19.90
2019-04-21T13:04:40.019Z,20.00
2019-04-21T13:07:15.450Z,20.00
2019-04-21T13:10:08.647Z,19.90
2019-04-21T13:12:44.209Z,20.00
2019-04-21T13:15:19.939Z,19.90
2019-04-21T13:17:56.313Z,19.80
2019-04-21T13:20:31.656Z,19.90
2019-04-21T13:23:08.032Z,19.80
2019-04-21T13:25:43.687Z,19.70
2019-04-21T13:28:18.959Z,19.70
2019-04-21T13:30:54.188Z,19.70
2019-04-21T13:33:33.364Z,19.90
2019-04-21T13:36:09.675Z,19.60
2019-04-21T13:39:34.768Z,19.50
2019-04-21T13:41:49.478Z,19.60
2019-04-21T13:44:17.763Z,19.70
2019-04-21T13:46:54.569Z,19.80
2019-04-21T13:49:29.862Z,19.50
2019-04-21T13:52:06.649Z,19.40
2019-04-21T13:54:45.524Z,19.30
2019-04-21T13:57:20.928Z,19.30
2019-04-21T13:59:57.200Z,19.40
2019-04-21T14:02:32.451Z,19.20
2019-04-21T14:05:11.492Z,18.90
2019-04-21T14:07:46.056Z,19.20
2019-04-21T14:10:21.844Z,19.50
2019-04-21T14:12:58.394Z,19.40
2019-04-21T14:15:33.746Z,19.20
2019-04-21T14:18:09.005Z,19.50
2019-04-21T14:20:44.978Z,19.00
2019-04-21T14:23:28.599Z,18.50
2019-04-21T14:25:57.578Z,18.40
2019-04-21T14:28:33.595Z,18.60
2019-04-21T14:31:10.490Z,18.60
2019-04-21T14:33:45.948Z,18.80
2019-04-21T14:36:21.305Z,18.80
2019-04-21T14:39:00.626Z,19.00
2019-04-21T14:41:40.290Z,19.00
2019-04-21T14:44:15.743Z,19.10
2019-04-21T14:46:57.348Z,19.10
2019-04-21T14:49:47.153Z,19.00
2019-04-21T14:52:30.941Z,19.20
2019-04-21T14:55:12.267Z,19.10
2019-04-21T14:57:47.857Z,19.30
2019-04-21T15:00:27.157Z,19.30
2019-04-21T15:03:03.563Z,19.40
2019-04-21T15:05:43.004Z,19.40
2019-04-21T15:08:19.347Z,19.40
2019-04-21T15:10:54.951Z,19.60
2019-04-21T15:13:30.310Z,19.60
2019-04-21T15:16:08.982Z,19.70
2019-04-21T15:18:44.581Z,19.70
2019-04-21T15:21:19.885Z,19.40
2019-04-21T15:23:56.250Z,19.30
2019-04-21T15:26:32.408Z,19.40
2019-04-21T15:29:08.852Z,19.30
2019-04-21T15:31:44.817Z,19.60
2019-04-21T15:34:22.588Z,19.30
2019-04-21T15:36:57.985Z,19.30
2019-04-21T15:39:34.062Z,19.80
2019-04-21T15:42:10.412Z,19.30
2019-04-21T15:44:45.651Z,19.30
2019-04-21T15:47:22.010Z,19.40
2019-04-21T15:50:03.693Z,18.90
2019-04-21T15:52:35.835Z,19.20
2019-04-21T15:55:19.420Z,19.20
2019-04-21T15:58:28.346Z,19.40
2019-04-21T16:01:40.844Z,19.30
2019-04-21T16:04:22.974Z,18.90
2019-04-21T16:06:59.476Z,18.90
2019-04-21T16:09:37.321Z,19.00
2019-04-21T16:12:13.671Z,18.80
2019-04-21T16:14:50.369Z,18.90
2019-04-21T16:17:27.638Z,19.10
2019-04-21T16:20:06.108Z,19.20
2019-04-21T16:22:50.622Z,19.10
2019-04-21T16:25:26.776Z,19.00
2019-04-21T16:32:50.153Z,19.20
2019-04-21T16:35:31.574Z,18.90
2019-04-21T16:38:07.864Z,18.80
2019-04-21T16:40:56.355Z,19.10
2019-04-21T16:43:27.250Z,19.00
2019-04-21T16:46:04.568Z,18.90
2019-04-21T16:48:44.147Z,18.90
2019-04-21T16:51:22.241Z,18.90
2019-04-21T16:54:06.029Z,19.00
2019-04-21T16:56:55.405Z,19.20
2019-04-21T16:59:40.655Z,19.50
2019-04-21T17:02:16.517Z,19.70
2019-04-21T17:04:52.153Z,19.70
2019-04-21T17:07:30.345Z,20.00
2019-04-21T17:10:20.471Z,20.20
2019-04-21T17:12:56.153Z,20.30
2019-04-21T17:15:51.226Z,20.40
2019-04-21T17:18:29.933Z,20.60
2019-04-21T17:20:53.590Z,20.70
2019-04-21T17:23:25.324Z,20.60
2019-04-21T17:26:01.127Z,20.70
2019-04-21T17:28:36.812Z,21.00
2019-04-21T17:31:12.825Z,20.80
2019-04-21T17:33:56.982Z,20.90
2019-04-21T17:36:29.430Z,20.60
2019-04-21T17:39:06.978Z,20.30
2019-04-21T17:41:56.361Z,20.40
2019-04-21T17:50:25.411Z,20.40
2019-04-21T17:54:23.405Z,20.40
2019-04-21T17:57:17.958Z,20.60
2019-04-21T17:59:58.857Z,21.00
2019-04-21T18:02:34.240Z,21.60
2019-04-21T18:05:08.680Z,21.60
2019-04-21T18:07:54.568Z,21.80
2019-04-21T18:10:34.851Z,22.00
2019-04-21T18:13:28.623Z,22.20
2019-04-21T18:16:22.645Z,22.20
2019-04-21T18:18:53.009Z,22.50
2019-04-21T18:21:49.987Z,22.70
2019-04-21T18:24:45.919Z,23.00
2019-04-21T18:27:26.720Z,22.70
2019-04-21T18:30:12.966Z,22.90
2019-04-21T18:33:04.676Z,22.80
2019-04-21T18:36:12.443Z,22.90
2019-04-21T18:39:12.302Z,23.20
2019-04-21T19:07:55.811Z,24.10
2019-04-21T19:10:45.717Z,24.30
2019-04-21T19:17:39.639Z,24.70
2019-04-21T19:20:12.953Z,24.70
2019-04-21T19:22:47.136Z,24.90
2019-04-21T19:25:29.368Z,25.00
2019-04-21T19:28:03.434Z,25.20
2019-04-21T19:30:51.016Z,25.50
2019-04-21T19:33:22.423Z,25.80
2019-04-21T19:35:41.557Z,25.80
2019-04-21T19:38:29.159Z,25.90
2019-04-21T19:41:18.859Z,25.90
2019-04-21T19:43:57.437Z,25.90
2019-04-21T19:46:33.511Z,26.00
2019-04-21T19:49:21.106Z,26.10
2019-04-21T19:51:50.321Z,26.00
2019-04-21T19:54:25.203Z,26.20
2019-04-21T19:56:55.503Z,26.40
2019-04-21T19:59:39.917Z,26.30
2019-04-21T20:02:09.038Z,26.50
2019-04-21T20:04:54.214Z,26.60
2019-04-21T20:07:41.872Z,26.70
2019-04-21T20:10:44.426Z,26.70
2019-04-21T20:13:33.850Z,26.80
2019-04-21T20:15:59.702Z,26.80
2019-04-21T20:18:30.156Z,26.80
2019-04-21T20:21:03.914Z,26.90
2019-04-21T20:23:41.456Z,27.00
2019-04-21T20:26:17.597Z,27.20
2019-04-21T20:29:07.274Z,27.30
2019-04-21T20:31:45.975Z,27.30
2019-04-21T20:34:33.374Z,27.40
2019-04-21T20:37:21.132Z,27.50
2019-04-21T20:39:47.008Z,27.70
2019-04-21T20:43:07.410Z,27.90
2019-04-21T20:45:49.150Z,28.00
2019-04-21T20:48:18.077Z,28.10
2019-04-21T20:51:14.556Z,28.20
2019-04-21T20:53:49.087Z,28.30
2019-04-21T20:56:28.730Z,28.30
2019-04-21T20:59:50.884Z,28.40
2019-04-21T21:02:58.181Z,28.50
2019-04-21T21:05:39.948Z,28.40
2019-04-21T21:08:31.173Z,28.30
2019-04-21T21:12:22.332Z,28.50
2019-04-21T21:14:52.975Z,28.50
2019-04-21T21:17:48.267Z,28.50
2019-04-21T21:20:18.222Z,28.60
2019-04-21T21:23:05.224Z,28.60
2019-04-21T21:29:19.805Z,28.90
2019-04-21T21:31:59.954Z,28.90
2019-04-21T21:34:42.535Z,29.10
2019-04-21T21:37:21.561Z,29.10
2019-04-21T21:42:11.852Z,29.40
2019-04-21T21:44:54.598Z,29.40
2019-04-21T21:47:45.218Z,29.60
2019-04-21T21:50:11.350Z,29.60
2019-04-21T21:52:51.161Z,29.60
2019-04-21T21:55:19.302Z,29.70
2019-04-21T21:57:58.804Z,29.80
2019-04-21T22:00:42.022Z,29.90
2019-04-21T22:03:24.442Z,29.90
2019-04-21T22:06:02.187Z,30.00
2019-04-21T22:08:34.363Z,30.00
2019-04-21T22:11:15.866Z,30.00
2019-04-21T22:14:00.463Z,30.00
2019-04-21T22:16:44.096Z,30.00
2019-04-21T22:19:29.969Z,30.10
2019-04-21T22:22:08.018Z,30.30
2019-04-21T22:25:03.117Z,30.30
2019-04-21T22:31:15.054Z,30.80
2019-04-21T22:33:54.861Z,30.90
2019-04-21T22:36:48.470Z,30.70
2019-04-21T22:39:42.285Z,30.70
2019-04-21T22:42:12.156Z,30.90
2019-04-21T22:44:52.394Z,31.20
2019-04-21T22:47:47.949Z,31.50
2019-04-21T22:50:32.762Z,31.50
2019-04-21T22:53:39.537Z,31.80
2019-04-21T22:56:33.608Z,31.70
2019-04-21T23:00:10.723Z,31.90
2019-04-21T23:03:10.710Z,31.60
2019-04-21T23:06:01.464Z,31.80
2019-04-21T23:08:53.048Z,31.70
2019-04-21T23:15:43.486Z,31.90
2019-04-21T23:18:53.595Z,31.70
2019-04-21T23:21:55.294Z,31.50
2019-04-21T23:24:58.627Z,31.80
2019-04-21T23:27:53.940Z,31.60
2019-04-21T23:30:45.881Z,31.80
2019-04-21T23:33:25.395Z,31.90
2019-04-21T23:37:00.480Z,32.20
2019-04-21T23:39:41.567Z,31.60
2019-04-21T23:42:29.064Z,32.00
2019-04-21T23:45:02.945Z,32.10
2019-04-21T23:47:57.822Z,32.20
2019-04-21T23:50:50.698Z,32.80
2019-04-21T23:54:23.139Z,32.60
2019-04-21T23:57:30.417Z,32.50
